sensor_id;sensor_type;location;lat;lon;timestamp;pressure;altitude;pressure_sealevel;temperature;humidity
24422;BME280;12600;53.326;-6.298;2023-03-31T00:01:15;98110.69;;;12.13;91.58
24422;BME280;12600;53.326;-6.298;2023-03-31T00:04:04;98110.25;;;12.07;92.37
24422;BME280;12600;53.326;-6.298;2023-03-31T00:06:55;98117.69;;;12.07;92.39
24422;BME280;12600;53.326;-6.298;2023-03-31T00:09:44;98105.13;;;11.98;92.96
24422;BME280;12600;53.326;-6.298;2023-03-31T00:12:35;98100.81;;;12.01;92.55
24422;BME280;12600;53.326;-6.298;2023-03-31T00:15:25;98089.09;;;11.97;92.59
24422;BME280;12600;53.326;-6.298;2023-03-31T00:18:14;98088.34;;;12.07;92.57
24422;BME280;12600;53.326;-6.298;2023-03-31T00:21:10;98071.47;;;11.94;92.66
24422;BME280;12600;53.326;-6.298;2023-03-31T00:24:03;98084.78;;;11.96;93.08
24422;BME280;12600;53.326;-6.298;2023-03-31T00:26:53;98078.16;;;12.00;92.77
24422;BME280;12600;53.326;-6.298;2023-03-31T00:29:44;98065.97;;;11.94;92.89
24422;BME280;12600;53.326;-6.298;2023-03-31T00:32:34;98073.47;;;12.01;92.98
24422;BME280;12600;53.326;-6.298;2023-03-31T00:35:23;98068.81;;;12.05;92.34
24422;BME280;12600;53.326;-6.298;2023-03-31T00:38:12;98066.47;;;12.03;92.93
24422;BME280;12600;53.326;-6.298;2023-03-31T00:41:02;98053.84;;;11.88;93.33
24422;BME280;12600;53.326;-6.298;2023-03-31T00:44:07;98033.53;;;11.93;92.79
24422;BME280;12600;53.326;-6.298;2023-03-31T00:47:03;98054.63;;;11.89;93.62
24422;BME280;12600;53.326;-6.298;2023-03-31T00:49:55;98052.72;;;11.96;93.18
24422;BME280;12600;53.326;-6.298;2023-03-31T00:52:46;98050.34;;;11.95;93.22
24422;BME280;12600;53.326;-6.298;2023-03-31T00:55:43;98043.31;;;11.90;93.05
24422;BME280;12600;53.326;-6.298;2023-03-31T00:58:34;98060.16;;;11.96;93.13
24422;BME280;12600;53.326;-6.298;2023-03-31T01:01:30;98044.47;;;11.93;92.88
24422;BME280;12600;53.326;-6.298;2023-03-31T01:04:24;98057.38;;;11.89;93.03
24422;BME280;12600;53.326;-6.298;2023-03-31T01:07:19;98050.75;;;11.93;93.40
24422;BME280;12600;53.326;-6.298;2023-03-31T01:10:13;98048.78;;;11.94;93.65
24422;BME280;12600;53.326;-6.298;2023-03-31T01:13:03;98050.34;;;11.95;93.44
24422;BME280;12600;53.326;-6.298;2023-03-31T01:15:53;98030.06;;;11.96;92.84
24422;BME280;12600;53.326;-6.298;2023-03-31T01:18:43;98034.34;;;11.97;93.03
24422;BME280;12600;53.326;-6.298;2023-03-31T01:22:33;98028.47;;;11.95;93.17
24422;BME280;12600;53.326;-6.298;2023-03-31T01:29:24;98018.72;;;12.01;92.94
24422;BME280;12600;53.326;-6.298;2023-03-31T01:33:14;98017.13;;;11.93;93.66
24422;BME280;12600;53.326;-6.298;2023-03-31T01:36:40;98013.22;;;11.94;93.41
24422;BME280;12600;53.326;-6.298;2023-03-31T01:40:11;98009.69;;;11.93;93.70
24422;BME280;12600;53.326;-6.298;2023-03-31T01:43:07;98010.06;;;11.88;93.49
24422;BME280;12600;53.326;-6.298;2023-03-31T01:46:02;98015.13;;;11.86;93.40
24422;BME280;12600;53.326;-6.298;2023-03-31T01:49:01;98009.56;;;11.75;93.86
24422;BME280;12600;53.326;-6.298;2023-03-31T01:52:02;98014.34;;;11.86;93.73
24422;BME280;12600;53.326;-6.298;2023-03-31T01:55:00;98007.31;;;11.85;93.51
24422;BME280;12600;53.326;-6.298;2023-03-31T01:57:53;98008.88;;;11.86;93.74
24422;BME280;12600;53.326;-6.298;2023-03-31T02:00:49;97993.53;;;11.77;93.68
24422;BME280;12600;53.326;-6.298;2023-03-31T02:03:48;98005.38;;;11.89;93.49
24422;BME280;12600;53.326;-6.298;2023-03-31T02:06:42;98001.81;;;11.81;93.64
24422;BME280;12600;53.326;-6.298;2023-03-31T02:09:37;98000.66;;;11.86;93.64
24422;BME280;12600;53.326;-6.298;2023-03-31T02:12:32;98003.00;;;11.84;94.03
24422;BME280;12600;53.326;-6.298;2023-03-31T02:15:27;98006.53;;;11.84;94.33
24422;BME280;12600;53.326;-6.298;2023-03-31T02:18:22;97997.84;;;11.78;94.33
24422;BME280;12600;53.326;-6.298;2023-03-31T02:21:14;97981.03;;;11.73;93.70
24422;BME280;12600;53.326;-6.298;2023-03-31T02:24:07;97998.34;;;11.88;93.92
24422;BME280;12600;53.326;-6.298;2023-03-31T02:27:05;98002.22;;;11.87;94.09
24422;BME280;12600;53.326;-6.298;2023-03-31T02:29:57;97988.06;;;11.77;94.13
24422;BME280;12600;53.326;-6.298;2023-03-31T02:32:47;97991.66;;;11.82;94.12
24422;BME280;12600;53.326;-6.298;2023-03-31T02:35:36;97999.88;;;11.82;94.39
24422;BME280;12600;53.326;-6.298;2023-03-31T02:38:26;97997.13;;;11.82;94.55
24422;BME280;12600;53.326;-6.298;2023-03-31T02:41:17;97992.75;;;11.77;94.48
24422;BME280;12600;53.326;-6.298;2023-03-31T02:44:08;97997.13;;;11.82;94.65
24422;BME280;12600;53.326;-6.298;2023-03-31T02:46:59;97999.81;;;11.78;94.99
24422;BME280;12600;53.326;-6.298;2023-03-31T02:49:54;97995.50;;;11.77;94.87
24422;BME280;12600;53.326;-6.298;2023-03-31T02:52:54;97984.50;;;11.70;94.64
24422;BME280;12600;53.326;-6.298;2023-03-31T02:56:03;97984.16;;;11.78;94.56
24422;BME280;12600;53.326;-6.298;2023-03-31T02:59:06;97998.66;;;11.79;94.39
24422;BME280;12600;53.326;-6.298;2023-03-31T03:02:14;97989.31;;;11.84;94.61
24422;BME280;12600;53.326;-6.298;2023-03-31T03:05:18;97980.28;;;11.80;94.32
24422;BME280;12600;53.326;-6.298;2023-03-31T03:09:04;97995.22;;;11.89;94.31
24422;BME280;12600;53.326;-6.298;2023-03-31T03:12:09;98006.22;;;12.00;94.21
24422;BME280;12600;53.326;-6.298;2023-03-31T03:15:06;97998.78;;;12.00;93.68
24422;BME280;12600;53.326;-6.298;2023-03-31T03:18:00;97999.19;;;12.02;93.88
24422;BME280;12600;53.326;-6.298;2023-03-31T03:20:50;97999.56;;;12.01;93.98
24422;BME280;12600;53.326;-6.298;2023-03-31T03:23:39;97992.94;;;12.02;93.56
24422;BME280;12600;53.326;-6.298;2023-03-31T03:26:30;98006.66;;;12.09;93.73
24422;BME280;12600;53.326;-6.298;2023-03-31T03:29:22;98007.81;;;12.08;93.41
24422;BME280;12600;53.326;-6.298;2023-03-31T03:32:11;98014.84;;;12.09;93.36
24422;BME280;12600;53.326;-6.298;2023-03-31T03:35:03;98000.41;;;12.09;93.64
24422;BME280;12600;53.326;-6.298;2023-03-31T03:37:53;97993.75;;;12.10;93.40
24422;BME280;12600;53.326;-6.298;2023-03-31T03:40:42;98002.00;;;12.17;93.31
24422;BME280;12600;53.326;-6.298;2023-03-31T03:43:33;98005.94;;;12.19;93.00
24422;BME280;12600;53.326;-6.298;2023-03-31T03:46:22;98006.34;;;12.21;93.03
24422;BME280;12600;53.326;-6.298;2023-03-31T03:49:12;98011.84;;;12.28;93.15
24422;BME280;12600;53.326;-6.298;2023-03-31T03:52:03;98014.56;;;12.28;93.15
24422;BME280;12600;53.326;-6.298;2023-03-31T03:54:52;98021.66;;;12.37;93.24
24422;BME280;12600;53.326;-6.298;2023-03-31T03:57:41;98020.47;;;12.38;93.40
24422;BME280;12600;53.326;-6.298;2023-03-31T04:00:31;98021.22;;;12.35;92.61
24422;BME280;12600;53.326;-6.298;2023-03-31T04:03:20;98022.81;;;12.36;92.54
24422;BME280;12600;53.326;-6.298;2023-03-31T04:06:10;98024.78;;;12.39;92.94
24422;BME280;12600;53.326;-6.298;2023-03-31T04:09:01;98022.03;;;12.39;92.75
24422;BME280;12600;53.326;-6.298;2023-03-31T04:11:50;98025.56;;;12.43;93.06
24422;BME280;12600;53.326;-6.298;2023-03-31T04:14:39;98025.19;;;12.44;92.89
24422;BME280;12600;53.326;-6.298;2023-03-31T04:17:29;98021.69;;;12.44;92.59
24422;BME280;12600;53.326;-6.298;2023-03-31T04:20:21;98028.34;;;12.46;92.80
24422;BME280;12600;53.326;-6.298;2023-03-31T04:23:14;98021.25;;;12.42;92.72
24422;BME280;12600;53.326;-6.298;2023-03-31T04:26:06;98030.31;;;12.53;92.62
24422;BME280;12600;53.326;-6.298;2023-03-31T04:28:56;98029.94;;;12.54;92.61
24422;BME280;12600;53.326;-6.298;2023-03-31T04:31:47;98031.09;;;12.53;92.61
24422;BME280;12600;53.326;-6.298;2023-03-31T04:34:39;98044.03;;;12.60;92.49
24422;BME280;12600;53.326;-6.298;2023-03-31T04:37:33;98049.53;;;12.60;91.72
24422;BME280;12600;53.326;-6.298;2023-03-31T04:40:22;98051.88;;;12.62;92.02
24422;BME280;12600;53.326;-6.298;2023-03-31T04:43:14;98053.41;;;12.59;91.75
24422;BME280;12600;53.326;-6.298;2023-03-31T04:46:03;98061.25;;;12.64;91.92
24422;BME280;12600;53.326;-6.298;2023-03-31T04:48:53;98065.16;;;12.67;91.68
24422;BME280;12600;53.326;-6.298;2023-03-31T04:51:42;98068.69;;;12.67;91.97
24422;BME280;12600;53.326;-6.298;2023-03-31T04:54:32;98069.88;;;12.66;91.85
24422;BME280;12600;53.326;-6.298;2023-03-31T04:57:21;98079.28;;;12.72;92.22
24422;BME280;12600;53.326;-6.298;2023-03-31T05:00:14;98079.69;;;12.71;91.99
24422;BME280;12600;53.326;-6.298;2023-03-31T05:03:03;98080.84;;;12.70;91.96
24422;BME280;12600;53.326;-6.298;2023-03-31T05:05:53;98085.56;;;12.69;91.79
24422;BME280;12600;53.326;-6.298;2023-03-31T05:08:43;98089.44;;;12.65;91.80
24422;BME280;12600;53.326;-6.298;2023-03-31T05:11:32;98099.25;;;12.69;92.08
24422;BME280;12600;53.326;-6.298;2023-03-31T05:14:22;98095.72;;;12.69;92.15
24422;BME280;12600;53.326;-6.298;2023-03-31T05:17:12;98103.56;;;12.70;92.09
24422;BME280;12600;53.326;-6.298;2023-03-31T05:20:02;98098.06;;;12.70;92.07
24422;BME280;12600;53.326;-6.298;2023-03-31T05:22:53;98104.72;;;12.69;91.54
24422;BME280;12600;53.326;-6.298;2023-03-31T05:25:42;98105.47;;;12.66;91.68
24422;BME280;12600;53.326;-6.298;2023-03-31T05:28:32;98105.88;;;12.65;91.49
24422;BME280;12600;53.326;-6.298;2023-03-31T05:31:21;98099.97;;;12.59;91.51
24422;BME280;12600;53.326;-6.298;2023-03-31T05:34:12;98112.91;;;12.62;91.48
24422;BME280;12600;53.326;-6.298;2023-03-31T05:37:02;98118.78;;;12.64;91.49
24422;BME280;12600;53.326;-6.298;2023-03-31T05:39:51;98127.00;;;12.64;91.67
24422;BME280;12600;53.326;-6.298;2023-03-31T05:42:41;98136.78;;;12.62;91.16
24422;BME280;12600;53.326;-6.298;2023-03-31T05:45:30;98085.38;;;12.30;91.74
24422;BME280;12600;53.326;-6.298;2023-03-31T05:48:19;98142.66;;;12.60;91.44
24422;BME280;12600;53.326;-6.298;2023-03-31T05:51:10;98150.88;;;12.60;91.43
24422;BME280;12600;53.326;-6.298;2023-03-31T05:54:00;98160.22;;;12.55;91.44
24422;BME280;12600;53.326;-6.298;2023-03-31T05:56:49;98166.88;;;12.54;91.41
24422;BME280;12600;53.326;-6.298;2023-03-31T05:59:38;98166.84;;;12.51;91.47
24422;BME280;12600;53.326;-6.298;2023-03-31T06:02:32;98172.69;;;12.49;91.49
24422;BME280;12600;53.326;-6.298;2023-03-31T06:05:21;98186.78;;;12.48;91.44
24422;BME280;12600;53.326;-6.298;2023-03-31T06:08:14;98191.03;;;12.42;91.14
24422;BME280;12600;53.326;-6.298;2023-03-31T06:11:07;98189.91;;;12.46;91.61
24422;BME280;12600;53.326;-6.298;2023-03-31T06:13:57;98188.31;;;12.42;91.99
24422;BME280;12600;53.326;-6.298;2023-03-31T06:16:49;98195.38;;;12.46;92.19
24422;BME280;12600;53.326;-6.298;2023-03-31T06:19:38;98200.09;;;12.49;92.02
24422;BME280;12600;53.326;-6.298;2023-03-31T06:22:27;98203.22;;;12.48;92.14
24422;BME280;12600;53.326;-6.298;2023-03-31T06:25:18;98213.78;;;12.49;91.87
24422;BME280;12600;53.326;-6.298;2023-03-31T06:28:08;98214.56;;;12.46;92.16
24422;BME280;12600;53.326;-6.298;2023-03-31T06:31:02;98219.25;;;12.49;92.21
24422;BME280;12600;53.326;-6.298;2023-03-31T06:33:52;98226.31;;;12.50;92.08
24422;BME280;12600;53.326;-6.298;2023-03-31T06:36:43;98234.97;;;12.56;92.24
24422;BME280;12600;53.326;-6.298;2023-03-31T06:39:33;98239.63;;;12.52;91.91
24422;BME280;12600;53.326;-6.298;2023-03-31T06:42:23;98243.13;;;12.49;91.80
24422;BME280;12600;53.326;-6.298;2023-03-31T06:45:13;98243.50;;;12.47;92.06
24422;BME280;12600;53.326;-6.298;2023-03-31T06:48:06;98246.25;;;12.47;91.95
24422;BME280;12600;53.326;-6.298;2023-03-31T06:50:58;98255.66;;;12.50;92.19
24422;BME280;12600;53.326;-6.298;2023-03-31T06:53:48;98267.81;;;12.52;92.19
24422;BME280;12600;53.326;-6.298;2023-03-31T06:56:39;98266.25;;;12.55;92.34
24422;BME280;12600;53.326;-6.298;2023-03-31T06:59:33;98269.00;;;12.55;91.74
24422;BME280;12600;53.326;-6.298;2023-03-31T07:02:26;98274.41;;;12.48;91.89
24422;BME280;12600;53.326;-6.298;2023-03-31T07:05:16;98277.56;;;12.50;91.86
24422;BME280;12600;53.326;-6.298;2023-03-31T07:08:07;98285.41;;;12.51;92.09
24422;BME280;12600;53.326;-6.298;2023-03-31T07:10:59;98275.53;;;12.40;92.14
24422;BME280;12600;53.326;-6.298;2023-03-31T07:13:52;98302.59;;;12.48;91.80
24422;BME280;12600;53.326;-6.298;2023-03-31T07:16:42;98303.78;;;12.51;92.17
24422;BME280;12600;53.326;-6.298;2023-03-31T07:19:32;98313.16;;;12.50;92.00
24422;BME280;12600;53.326;-6.298;2023-03-31T07:22:27;98320.19;;;12.47;91.89
24422;BME280;12600;53.326;-6.298;2023-03-31T07:25:17;98321.03;;;12.51;92.46
24422;BME280;12600;53.326;-6.298;2023-03-31T07:28:06;98334.34;;;12.53;92.21
24422;BME280;12600;53.326;-6.298;2023-03-31T07:30:56;98335.91;;;12.57;92.05
24422;BME280;12600;53.326;-6.298;2023-03-31T07:33:46;98339.50;;;12.62;92.23
24422;BME280;12600;53.326;-6.298;2023-03-31T07:36:35;98349.28;;;12.66;92.23
24422;BME280;12600;53.326;-6.298;2023-03-31T07:39:28;98352.81;;;12.67;92.06
24422;BME280;12600;53.326;-6.298;2023-03-31T07:42:17;98360.16;;;12.55;91.45
24422;BME280;12600;53.326;-6.298;2023-03-31T07:45:07;98344.19;;;12.61;92.24
24422;BME280;12600;53.326;-6.298;2023-03-31T07:47:59;98371.22;;;12.66;91.37
24422;BME280;12600;53.326;-6.298;2023-03-31T07:50:50;98364.94;;;12.62;91.29
24422;BME280;12600;53.326;-6.298;2023-03-31T07:53:48;98371.59;;;12.65;91.14
24422;BME280;12600;53.326;-6.298;2023-03-31T07:56:39;98383.00;;;12.70;91.56
24422;BME280;12600;53.326;-6.298;2023-03-31T07:59:29;98386.19;;;12.79;92.22
24422;BME280;12600;53.326;-6.298;2023-03-31T08:02:18;98388.63;;;12.88;92.37
24422;BME280;12600;53.326;-6.298;2023-03-31T08:05:09;98383.13;;;12.88;92.09
24422;BME280;12600;53.326;-6.298;2023-03-31T08:07:59;98406.38;;;13.05;92.19
24422;BME280;12600;53.326;-6.298;2023-03-31T08:10:48;98410.72;;;13.09;91.50
24422;BME280;12600;53.326;-6.298;2023-03-31T08:13:38;98402.88;;;13.08;91.06
24422;BME280;12600;53.326;-6.298;2023-03-31T08:16:27;98418.63;;;13.18;91.70
24422;BME280;12600;53.326;-6.298;2023-03-31T08:19:17;98422.19;;;13.22;91.69
24422;BME280;12600;53.326;-6.298;2023-03-31T08:22:06;98428.09;;;13.24;91.08
24422;BME280;12600;53.326;-6.298;2023-03-31T08:24:57;98439.09;;;13.28;91.14
24422;BME280;12600;53.326;-6.298;2023-03-31T08:27:46;98432.81;;;13.27;91.15
24422;BME280;12600;53.326;-6.298;2023-03-31T08:30:38;98440.66;;;13.29;90.99
24422;BME280;12600;53.326;-6.298;2023-03-31T08:33:27;98448.53;;;13.34;91.38
24422;BME280;12600;53.326;-6.298;2023-03-31T08:36:16;98447.75;;;13.33;90.72
24422;BME280;12600;53.326;-6.298;2023-03-31T08:39:06;98453.97;;;13.30;90.35
24422;BME280;12600;53.326;-6.298;2023-03-31T08:42:00;98449.25;;;13.27;90.75
24422;BME280;12600;53.326;-6.298;2023-03-31T08:44:57;98463.41;;;13.33;90.96
24422;BME280;12600;53.326;-6.298;2023-03-31T08:47:52;98463.03;;;13.34;91.33
24422;BME280;12600;53.326;-6.298;2023-03-31T08:50:46;98472.44;;;13.37;90.89
24422;BME280;12600;53.326;-6.298;2023-03-31T08:53:41;98474.00;;;13.38;91.00
24422;BME280;12600;53.326;-6.298;2023-03-31T08:56:35;98483.41;;;13.33;89.20
24422;BME280;12600;53.326;-6.298;2023-03-31T08:59:30;98487.31;;;13.36;90.43
24422;BME280;12600;53.326;-6.298;2023-03-31T09:02:22;98486.94;;;13.34;89.76
24422;BME280;12600;53.326;-6.298;2023-03-31T09:05:36;98494.66;;;13.21;88.94
24422;BME280;12600;53.326;-6.298;2023-03-31T09:08:47;98484.84;;;13.20;90.10
24422;BME280;12600;53.326;-6.298;2023-03-31T09:11:39;98502.16;;;13.31;90.55
24422;BME280;12600;53.326;-6.298;2023-03-31T09:14:41;98509.59;;;13.27;89.27
24422;BME280;12600;53.326;-6.298;2023-03-31T09:17:40;98505.28;;;13.26;90.19
24422;BME280;12600;53.326;-6.298;2023-03-31T09:20:35;98507.69;;;13.35;89.82
24422;BME280;12600;53.326;-6.298;2023-03-31T09:23:28;98508.47;;;13.35;89.86
24422;BME280;12600;53.326;-6.298;2023-03-31T09:26:26;98514.84;;;13.47;90.16
24422;BME280;12600;53.326;-6.298;2023-03-31T09:29:21;98521.59;;;13.56;90.70
24422;BME280;12600;53.326;-6.298;2023-03-31T09:32:16;98534.16;;;13.61;89.80
24422;BME280;12600;53.326;-6.298;2023-03-31T09:35:17;98523.09;;;13.50;88.96
24422;BME280;12600;53.326;-6.298;2023-03-31T09:38:09;98533.41;;;13.64;90.02
24422;BME280;12600;53.326;-6.298;2023-03-31T09:41:01;98542.03;;;13.69;89.91
24422;BME280;12600;53.326;-6.298;2023-03-31T09:43:52;98548.75;;;13.76;90.54
24422;BME280;12600;53.326;-6.298;2023-03-31T09:46:41;98544.84;;;13.77;90.08
24422;BME280;12600;53.326;-6.298;2023-03-31T09:49:34;98555.50;;;13.85;89.95
24422;BME280;12600;53.326;-6.298;2023-03-31T09:52:28;98553.53;;;13.86;89.15
24422;BME280;12600;53.326;-6.298;2023-03-31T09:55:21;98562.50;;;13.79;87.27
24422;BME280;12600;53.326;-6.298;2023-03-31T09:58:26;98556.59;;;13.74;88.86
24422;BME280;12600;53.326;-6.298;2023-03-31T10:01:16;98592.00;;;13.89;89.10
24422;BME280;12600;53.326;-6.298;2023-03-31T10:04:07;98585.28;;;13.83;88.94
24422;BME280;12600;53.326;-6.298;2023-03-31T10:07:03;98592.72;;;13.83;88.78
24422;BME280;12600;53.326;-6.298;2023-03-31T10:09:54;98599.00;;;13.80;89.46
24422;BME280;12600;53.326;-6.298;2023-03-31T10:12:50;98607.94;;;13.73;88.63
24422;BME280;12600;53.326;-6.298;2023-03-31T10:15:39;98603.97;;;13.67;89.21
24422;BME280;12600;53.326;-6.298;2023-03-31T10:18:34;98596.81;;;13.55;88.95
24422;BME280;12600;53.326;-6.298;2023-03-31T10:21:26;98607.38;;;13.53;89.10
24422;BME280;12600;53.326;-6.298;2023-03-31T10:24:19;98628.13;;;13.51;88.95
24422;BME280;12600;53.326;-6.298;2023-03-31T10:27:20;98622.66;;;13.51;89.08
24422;BME280;12600;53.326;-6.298;2023-03-31T10:30:16;98625.41;;;13.51;89.68
24422;BME280;12600;53.326;-6.298;2023-03-31T10:33:12;98634.03;;;13.53;89.25
24422;BME280;12600;53.326;-6.298;2023-03-31T10:36:19;98628.91;;;13.48;89.10
24422;BME280;12600;53.326;-6.298;2023-03-31T10:39:14;98643.03;;;13.50;89.22
24422;BME280;12600;53.326;-6.298;2023-03-31T10:42:05;98642.19;;;13.46;89.24
24422;BME280;12600;53.326;-6.298;2023-03-31T10:45:11;98642.91;;;13.39;88.70
24422;BME280;12600;53.326;-6.298;2023-03-31T10:48:19;98659.03;;;13.44;89.36
24422;BME280;12600;53.326;-6.298;2023-03-31T10:51:15;98653.94;;;13.42;88.95
24422;BME280;12600;53.326;-6.298;2023-03-31T10:54:08;98667.31;;;13.48;89.21
24422;BME280;12600;53.326;-6.298;2023-03-31T10:56:59;98671.66;;;13.52;89.63
24422;BME280;12600;53.326;-6.298;2023-03-31T11:00:09;98671.69;;;13.56;89.64
24422;BME280;12600;53.326;-6.298;2023-03-31T11:03:36;98685.50;;;13.66;89.68
24422;BME280;12600;53.326;-6.298;2023-03-31T11:06:48;98679.31;;;13.77;89.98
24422;BME280;12600;53.326;-6.298;2023-03-31T11:09:51;98693.13;;;13.84;88.93
24422;BME280;12600;53.326;-6.298;2023-03-31T11:12:50;98691.22;;;13.91;89.12
24422;BME280;12600;53.326;-6.298;2023-03-31T11:15:50;98702.59;;;13.93;88.37
24422;BME280;12600;53.326;-6.298;2023-03-31T11:19:05;98706.13;;;13.90;88.23
24422;BME280;12600;53.326;-6.298;2023-03-31T11:22:06;98707.22;;;13.82;87.83
24422;BME280;12600;53.326;-6.298;2023-03-31T11:25:15;98709.59;;;13.84;88.37
24422;BME280;12600;53.326;-6.298;2023-03-31T11:28:57;98721.81;;;13.90;88.38
24422;BME280;12600;53.326;-6.298;2023-03-31T11:32:15;98728.97;;;14.02;87.78
24422;BME280;12600;53.326;-6.298;2023-03-31T11:35:29;98732.16;;;14.07;88.44
24422;BME280;12600;53.326;-6.298;2023-03-31T11:38:41;98738.84;;;14.10;88.00
24422;BME280;12600;53.326;-6.298;2023-03-31T11:41:38;98748.66;;;14.11;88.18
24422;BME280;12600;53.326;-6.298;2023-03-31T11:44:36;98751.03;;;14.12;88.54
24422;BME280;12600;53.326;-6.298;2023-03-31T11:47:32;98751.78;;;14.09;88.52
24422;BME280;12600;53.326;-6.298;2023-03-31T11:50:26;98765.19;;;14.14;87.56
24422;BME280;12600;53.326;-6.298;2023-03-31T11:53:29;98757.72;;;14.15;87.96
24422;BME280;12600;53.326;-6.298;2023-03-31T11:56:21;98769.25;;;14.31;88.58
24422;BME280;12600;53.326;-6.298;2023-03-31T11:59:13;98771.22;;;14.34;87.21
24422;BME280;12600;53.326;-6.298;2023-03-31T12:02:14;98781.19;;;14.49;87.72
24422;BME280;12600;53.326;-6.298;2023-03-31T12:05:09;98794.59;;;14.54;87.27
24422;BME280;12600;53.326;-6.298;2023-03-31T12:08:04;98793.75;;;14.50;86.71
24422;BME280;12600;53.326;-6.298;2023-03-31T12:11:01;98792.25;;;14.57;87.25
24422;BME280;12600;53.326;-6.298;2023-03-31T12:13:59;98795.38;;;14.59;86.89
24422;BME280;12600;53.326;-6.298;2023-03-31T12:16:59;98795.31;;;14.51;85.96
24422;BME280;12600;53.326;-6.298;2023-03-31T12:19:53;98796.94;;;14.52;86.06
24422;BME280;12600;53.326;-6.298;2023-03-31T12:22:46;98807.56;;;14.58;85.49
24422;BME280;12600;53.326;-6.298;2023-03-31T12:25:45;98811.09;;;14.58;85.16
24422;BME280;12600;53.326;-6.298;2023-03-31T12:28:38;98817.88;;;14.68;85.77
24422;BME280;12600;53.326;-6.298;2023-03-31T12:31:30;98812.38;;;14.68;84.83
24422;BME280;12600;53.326;-6.298;2023-03-31T12:34:21;98824.50;;;14.67;84.83
24422;BME280;12600;53.326;-6.298;2023-03-31T12:37:59;98820.19;;;14.66;84.54
24422;BME280;12600;53.326;-6.298;2023-03-31T12:41:02;98831.63;;;14.75;84.28
24422;BME280;12600;53.326;-6.298;2023-03-31T12:44:12;98825.44;;;14.85;85.06
24422;BME280;12600;53.326;-6.298;2023-03-31T12:47:31;98833.78;;;14.99;84.40
24422;BME280;12600;53.326;-6.298;2023-03-31T12:51:00;98831.19;;;15.28;84.33
24422;BME280;12600;53.326;-6.298;2023-03-31T12:54:09;98841.50;;;15.45;82.36
24422;BME280;12600;53.326;-6.298;2023-03-31T12:57:10;98836.91;;;15.67;84.49
24422;BME280;12600;53.326;-6.298;2023-03-31T13:00:29;98844.78;;;15.69;82.61
24422;BME280;12600;53.326;-6.298;2023-03-31T13:03:45;98846.38;;;15.70;83.52
24422;BME280;12600;53.326;-6.298;2023-03-31T13:06:59;98856.56;;;15.62;82.62
24422;BME280;12600;53.326;-6.298;2023-03-31T13:09:55;98857.66;;;15.54;82.27
24422;BME280;12600;53.326;-6.298;2023-03-31T13:13:01;98872.56;;;15.42;81.48
24422;BME280;12600;53.326;-6.298;2023-03-31T13:15:54;98876.06;;;15.35;82.02
24422;BME280;12600;53.326;-6.298;2023-03-31T13:18:50;98873.59;;;15.23;82.08
24422;BME280;12600;53.326;-6.298;2023-03-31T13:21:52;98872.75;;;15.12;81.66
24422;BME280;12600;53.326;-6.298;2023-03-31T13:24:42;98882.16;;;15.07;82.07
24422;BME280;12600;53.326;-6.298;2023-03-31T13:27:33;98892.75;;;15.02;82.09
24422;BME280;12600;53.326;-6.298;2023-03-31T13:30:50;98893.22;;;14.67;81.21
24422;BME280;12600;53.326;-6.298;2023-03-31T13:33:46;98898.19;;;14.50;81.66
24422;BME280;12600;53.326;-6.298;2023-03-31T13:37:07;98903.53;;;14.40;82.56
24422;BME280;12600;53.326;-6.298;2023-03-31T13:40:16;98914.06;;;14.34;82.99
24422;BME280;12600;53.326;-6.298;2023-03-31T13:47:41;98913.66;;;14.32;84.65
24422;BME280;12600;53.326;-6.298;2023-03-31T13:50:49;98916.00;;;14.30;84.84
24422;BME280;12600;53.326;-6.298;2023-03-31T14:05:24;98939.84;;;14.52;85.31
24422;BME280;12600;53.326;-6.298;2023-03-31T14:08:25;98935.84;;;14.50;84.94
24422;BME280;12600;53.326;-6.298;2023-03-31T14:11:23;98940.09;;;14.44;84.50
24422;BME280;12600;53.326;-6.298;2023-03-31T14:14:14;98945.28;;;14.49;84.58
24422;BME280;12600;53.326;-6.298;2023-03-31T14:17:07;98953.91;;;14.47;84.58
24422;BME280;12600;53.326;-6.298;2023-03-31T14:20:31;98957.84;;;14.50;84.82
24422;BME280;12600;53.326;-6.298;2023-03-31T14:23:36;98952.34;;;14.50;84.59
24422;BME280;12600;53.326;-6.298;2023-03-31T14:26:44;98966.56;;;14.55;84.71
24422;BME280;12600;53.326;-6.298;2023-03-31T14:29:42;98970.47;;;14.54;84.36
24422;BME280;12600;53.326;-6.298;2023-03-31T14:32:42;98933.00;;;14.43;84.73
24422;BME280;12600;53.326;-6.298;2023-03-31T14:35:41;98977.25;;;14.64;83.96
24422;BME280;12600;53.326;-6.298;2023-03-31T14:38:33;98980.88;;;14.75;84.05
24422;BME280;12600;53.326;-6.298;2023-03-31T14:41:24;98986.34;;;14.72;83.94
24422;BME280;12600;53.326;-6.298;2023-03-31T14:44:17;98979.28;;;14.71;84.00
24422;BME280;12600;53.326;-6.298;2023-03-31T14:47:13;98997.00;;;14.77;82.67
24422;BME280;12600;53.326;-6.298;2023-03-31T14:50:12;98996.72;;;14.86;83.54
24422;BME280;12600;53.326;-6.298;2023-03-31T14:53:02;99003.41;;;14.92;83.73
24422;BME280;12600;53.326;-6.298;2023-03-31T14:55:59;99001.56;;;15.03;84.01
24422;BME280;12600;53.326;-6.298;2023-03-31T14:58:52;99007.53;;;15.08;83.80
24422;BME280;12600;53.326;-6.298;2023-03-31T15:01:44;99010.69;;;15.10;83.44
24422;BME280;12600;53.326;-6.298;2023-03-31T15:04:39;99015.41;;;15.10;83.03
24422;BME280;12600;53.326;-6.298;2023-03-31T15:07:34;99017.06;;;15.22;82.86
24422;BME280;12600;53.326;-6.298;2023-03-31T15:10:24;99019.56;;;15.37;83.14
24422;BME280;12600;53.326;-6.298;2023-03-31T15:13:18;99027.47;;;15.46;82.61
24422;BME280;12600;53.326;-6.298;2023-03-31T15:16:30;99021.97;;;15.43;81.66
24422;BME280;12600;53.326;-6.298;2023-03-31T15:19:22;99029.50;;;15.53;82.65
24422;BME280;12600;53.326;-6.298;2023-03-31T15:22:14;99037.75;;;15.49;82.60
24422;BME280;12600;53.326;-6.298;2023-03-31T15:25:11;99047.94;;;15.45;82.58
24422;BME280;12600;53.326;-6.298;2023-03-31T15:28:06;99045.38;;;15.22;82.41
24422;BME280;12600;53.326;-6.298;2023-03-31T15:30:58;99049.59;;;15.09;82.37
24422;BME280;12600;53.326;-6.298;2023-03-31T15:33:57;99054.53;;;14.93;82.49
24422;BME280;12600;53.326;-6.298;2023-03-31T15:36:47;99061.41;;;14.76;83.22
24422;BME280;12600;53.326;-6.298;2023-03-31T15:39:37;99064.38;;;14.60;83.74